createdAt,value
2023-02-13T00:01:11.911Z,101720.91
2023-02-13T00:04:16.082Z,101707.06
2023-02-13T00:07:38.456Z,101445.78
2023-02-13T00:10:45.402Z,101739.69
2023-02-13T00:13:49.781Z,101734.88
2023-02-13T00:16:53.565Z,101734.31
2023-02-13T00:19:57.985Z,101741.50
2023-02-13T00:23:04.824Z,101685.53
2023-02-13T00:26:12.875Z,101731.50
2023-02-13T00:29:21.138Z,101738.78
2023-02-13T00:32:25.728Z,101741.31
2023-02-13T00:35:34.121Z,101724.28
2023-02-13T00:38:40.037Z,101737.56
2023-02-13T00:41:43.967Z,101712.88
2023-02-13T00:44:48.179Z,101540.06
2023-02-13T00:47:52.630Z,101734.66
2023-02-13T00:50:57.978Z,101724.16
2023-02-13T00:54:02.717Z,101702.84
2023-02-13T00:57:07.041Z,101723.78
2023-02-13T01:00:12.885Z,101694.03
2023-02-13T01:03:22.270Z,101702.16
2023-02-13T01:06:27.162Z,101708.97
2023-02-13T01:09:31.870Z,101713.06
2023-02-13T01:12:36.705Z,101664.53
2023-02-13T01:15:42.708Z,101715.44
2023-02-13T01:18:47.090Z,101700.63
2023-02-13T01:21:51.468Z,101679.78
2023-02-13T01:24:56.143Z,101714.25
2023-02-13T01:28:00.691Z,101674.00
2023-02-13T01:31:04.897Z,101699.00
2023-02-13T01:34:09.276Z,101696.34
2023-02-13T01:37:14.242Z,101640.72
2023-02-13T01:40:18.897Z,101676.47
2023-02-13T01:43:26.020Z,101677.63
2023-02-13T01:46:44.391Z,101689.03
2023-02-13T01:49:49.996Z,101689.66
2023-02-13T01:53:08.348Z,101687.66
2023-02-13T01:56:36.627Z,101597.84
2023-02-13T01:59:56.393Z,101689.84
2023-02-13T02:03:07.230Z,101672.28
2023-02-13T02:06:18.234Z,101690.63
2023-02-13T02:09:28.521Z,101676.06
2023-02-13T02:16:19.284Z,101668.69
2023-02-13T02:19:36.576Z,101643.72
2023-02-13T02:23:14.923Z,101661.09
2023-02-13T02:26:46.547Z,101644.91
2023-02-13T02:30:15.654Z,101653.06
2023-02-13T02:33:46.866Z,101632.00
2023-02-13T02:37:06.455Z,101638.53
2023-02-13T02:40:40.987Z,101634.28
2023-02-13T02:44:23.844Z,101623.66
2023-02-13T02:48:16.077Z,101624.59
2023-02-13T02:51:34.740Z,101594.16
2023-02-13T02:55:09.197Z,101616.47
2023-02-13T02:58:46.053Z,101618.00
2023-02-13T03:02:13.144Z,101604.34
2023-02-13T03:05:47.265Z,101613.38
2023-02-13T03:09:20.169Z,101597.19
2023-02-13T03:12:46.881Z,101596.63
2023-02-13T03:16:14.800Z,101576.69
2023-02-13T03:20:17.375Z,101591.44
2023-02-13T03:23:40.950Z,101581.16
2023-02-13T03:27:49.075Z,101559.53
2023-02-13T03:31:03.568Z,101567.06
2023-02-13T03:34:21.404Z,101527.19
2023-02-13T03:37:50.194Z,101564.97
2023-02-13T03:41:20.146Z,101512.81
2023-02-13T03:45:12.876Z,101521.84
2023-02-13T03:48:40.894Z,101539.66
2023-02-13T03:52:11.802Z,101537.91
2023-02-13T03:55:42.200Z,101506.47
2023-02-13T03:59:10.714Z,101523.25
2023-02-13T04:02:20.996Z,101495.44
2023-02-13T04:05:29.710Z,101448.00
2023-02-13T04:08:34.109Z,101518.97
2023-02-13T04:11:52.753Z,101494.47
2023-02-13T04:15:04.702Z,101487.53
2023-02-13T04:18:12.748Z,101509.44
2023-02-13T04:21:20.220Z,101503.81
2023-02-13T04:24:25.067Z,101485.63
2023-02-13T04:27:31.558Z,101490.50
2023-02-13T04:30:36.044Z,101488.44
2023-02-13T04:33:40.089Z,101474.25
2023-02-13T04:36:44.536Z,101472.28
2023-02-13T04:39:51.133Z,101472.59
2023-02-13T04:42:55.436Z,101461.50
2023-02-13T04:45:59.793Z,101461.06
2023-02-13T04:49:04.211Z,101464.03
2023-02-13T04:52:08.627Z,101449.66
2023-02-13T04:55:13.584Z,101411.13
2023-02-13T04:58:17.903Z,101445.19
2023-02-13T05:01:24.034Z,101445.22
2023-02-13T05:04:29.711Z,101444.28
2023-02-13T05:07:33.735Z,101435.19
2023-02-13T05:10:38.527Z,101438.56
2023-02-13T05:13:44.050Z,101437.16
2023-02-13T05:16:48.803Z,101438.38
2023-02-13T05:19:57.562Z,101439.78
2023-02-13T05:23:19.937Z,101430.06
2023-02-13T05:26:24.369Z,101390.69
2023-02-13T05:29:31.725Z,101298.72
2023-02-13T05:32:36.338Z,101395.66
2023-02-13T05:35:40.694Z,101404.50
2023-02-13T05:38:45.410Z,101391.38
2023-02-13T05:41:50.254Z,101413.38
2023-02-13T05:44:54.599Z,101417.53
2023-02-13T05:47:58.916Z,101409.31
2023-02-13T05:51:03.893Z,101383.06
2023-02-13T05:54:08.351Z,101406.94
2023-02-13T05:57:12.920Z,101408.66
2023-02-13T06:00:17.714Z,101422.06
2023-02-13T06:03:21.829Z,101377.03
2023-02-13T06:06:26.297Z,101372.41
2023-02-13T06:09:30.368Z,101411.94
2023-02-13T06:12:34.346Z,101373.53
2023-02-13T06:15:38.647Z,101395.56
2023-02-13T06:18:42.565Z,101370.84
2023-02-13T06:21:46.460Z,101405.09
2023-02-13T06:24:50.318Z,101361.84
2023-02-13T06:27:56.560Z,101337.59
2023-02-13T06:31:01.562Z,101419.09
2023-02-13T06:34:05.934Z,101416.41
2023-02-13T06:37:09.783Z,101422.72
2023-02-13T06:40:15.559Z,101384.84
2023-02-13T06:43:19.795Z,101415.94
2023-02-13T06:46:24.147Z,101395.41
2023-02-13T06:49:29.757Z,101394.25
2023-02-13T06:52:33.413Z,101404.91
2023-02-13T06:55:40.665Z,101395.78
2023-02-13T06:58:49.125Z,101410.69
2023-02-13T07:01:53.631Z,101406.47
2023-02-13T07:04:57.592Z,101387.84
2023-02-13T07:08:01.943Z,101389.19
2023-02-13T07:11:06.086Z,101365.59
2023-02-13T07:14:11.165Z,101403.00
2023-02-13T07:17:15.612Z,101397.56
2023-02-13T07:20:19.826Z,101392.97
2023-02-13T07:23:23.684Z,101385.78
2023-02-13T07:26:28.990Z,101384.94
2023-02-13T07:29:33.497Z,101355.97
2023-02-13T07:32:37.976Z,101378.44
2023-02-13T07:35:51.438Z,101382.41
2023-02-13T07:38:55.947Z,101356.31
2023-02-13T07:42:00.323Z,101371.03
2023-02-13T07:45:07.078Z,101379.31
2023-02-13T07:48:11.415Z,101301.34
2023-02-13T07:51:16.811Z,101378.53
2023-02-13T07:54:20.877Z,101365.38
2023-02-13T07:57:25.070Z,101357.25
2023-02-13T08:00:30.045Z,101351.22
2023-02-13T08:03:34.102Z,101370.09
2023-02-13T08:06:41.290Z,101322.66
2023-02-13T08:10:05.407Z,101373.75
2023-02-13T08:13:11.241Z,101380.22
2023-02-13T08:16:15.858Z,101359.03
2023-02-13T08:19:20.679Z,101361.38
2023-02-13T08:22:25.145Z,101373.75
2023-02-13T08:25:29.416Z,101364.03
2023-02-13T08:28:33.854Z,101347.31
2023-02-13T08:32:16.871Z,101379.63
2023-02-13T08:35:21.422Z,101313.13
2023-02-13T08:38:26.381Z,101374.53
2023-02-13T08:41:30.850Z,101378.94
2023-02-13T08:44:35.457Z,101350.22
2023-02-13T08:47:40.686Z,101376.97
2023-02-13T08:50:44.861Z,101388.31
2023-02-13T08:53:49.303Z,101368.50
2023-02-13T08:56:53.665Z,101364.06
2023-02-13T08:59:58.465Z,101376.06
2023-02-13T09:03:09.414Z,101380.06
2023-02-13T09:06:14.658Z,101373.34
2023-02-13T09:09:19.453Z,101324.44
2023-02-13T09:12:24.979Z,101368.16
2023-02-13T09:15:32.497Z,101379.66
2023-02-13T09:18:36.512Z,101364.78
2023-02-13T09:21:43.638Z,101373.50
2023-02-13T09:24:48.200Z,101377.66
2023-02-13T09:27:52.572Z,101395.19
2023-02-13T09:30:57.116Z,101363.25
2023-02-13T09:34:01.748Z,101393.69
2023-02-13T09:37:05.741Z,101380.84
2023-02-13T09:40:53.391Z,101392.59
2023-02-13T09:44:44.892Z,101401.50
2023-02-13T09:51:21.623Z,101403.75
2023-02-13T09:54:27.933Z,101387.66
2023-02-13T09:57:57.032Z,101408.69
2023-02-13T10:01:04.386Z,101403.41
2023-02-13T10:04:35.179Z,101420.06
2023-02-13T10:07:55.191Z,101403.19
2023-02-13T10:11:13.380Z,101405.28
2023-02-13T10:14:32.686Z,101359.50
2023-02-13T10:17:43.351Z,101397.63
2023-02-13T10:20:54.415Z,101398.81
2023-02-13T10:24:27.358Z,101383.75
2023-02-13T10:28:00.368Z,101385.97
2023-02-13T10:31:11.092Z,101395.63
2023-02-13T10:34:22.472Z,101387.44
2023-02-13T10:37:29.556Z,101390.53
2023-02-13T10:40:41.717Z,101380.91
2023-02-13T10:44:11.769Z,101367.63
2023-02-13T10:47:25.007Z,101376.84
2023-02-13T10:50:52.753Z,101377.47
2023-02-13T10:54:06.026Z,101368.50
2023-02-13T10:57:23.706Z,101376.72
2023-02-13T11:01:00.030Z,101377.50
2023-02-13T11:04:15.904Z,101372.13
2023-02-13T11:07:23.086Z,101370.28
2023-02-13T11:10:29.206Z,101375.19
2023-02-13T11:13:35.493Z,101338.34
2023-02-13T11:16:52.600Z,101349.78
2023-02-13T11:20:01.892Z,101330.84
2023-02-13T11:23:33.718Z,101338.41
2023-02-13T11:26:41.880Z,101366.78
2023-02-13T11:30:03.768Z,101383.81
2023-02-13T11:33:24.258Z,101371.94
2023-02-13T11:36:34.359Z,101363.19
2023-02-13T11:39:39.428Z,101342.53
2023-02-13T11:42:45.132Z,101342.22
2023-02-13T11:46:01.543Z,101333.78
2023-02-13T11:49:07.246Z,101367.50
2023-02-13T11:52:48.617Z,101013.09
2023-02-13T11:56:05.873Z,101354.47
2023-02-13T11:59:15.625Z,101312.09
2023-02-13T12:02:48.373Z,101349.03
2023-02-13T12:06:09.828Z,101329.19
2023-02-13T12:09:17.599Z,101341.31
2023-02-13T12:12:34.212Z,101276.50
2023-02-13T12:15:43.306Z,101274.16
2023-02-13T12:18:57.853Z,101321.22
2023-02-13T12:22:11.852Z,101343.59
2023-02-13T12:25:26.195Z,101349.59
2023-02-13T12:28:59.637Z,101313.78
2023-02-13T12:32:16.023Z,101335.94
2023-02-13T12:35:47.087Z,101336.50
2023-02-13T12:39:15.627Z,101327.72
2023-02-13T12:42:49.958Z,101328.41
2023-02-13T12:46:05.353Z,101329.72
2023-02-13T12:49:33.293Z,101335.78
2023-02-13T12:52:56.860Z,101332.88
2023-02-13T12:56:29.100Z,101328.13
2023-02-13T13:00:05.324Z,101322.69
2023-02-13T13:03:26.270Z,101270.81
2023-02-13T13:06:57.977Z,101318.44
2023-02-13T13:10:22.096Z,101284.38
2023-02-13T13:13:32.802Z,101280.44
2023-02-13T13:16:45.591Z,101311.06
2023-02-13T13:20:10.267Z,101288.22
2023-02-13T13:23:23.512Z,101296.72
2023-02-13T13:26:45.899Z,101296.88
2023-02-13T13:30:02.660Z,101274.16
2023-02-13T13:33:27.337Z,101236.91
2023-02-13T13:36:52.483Z,101284.28
2023-02-13T13:40:05.052Z,101281.59
2023-02-13T13:43:32.947Z,101284.47
2023-02-13T13:46:56.499Z,101238.97
2023-02-13T13:50:06.831Z,101241.41
2023-02-13T13:53:16.946Z,101215.22
2023-02-13T13:56:23.467Z,101220.06
2023-02-13T13:59:40.655Z,101266.56
2023-02-13T14:03:12.004Z,101269.88
2023-02-13T14:06:20.598Z,101260.47
2023-02-13T14:09:28.060Z,101258.19
2023-02-13T14:12:32.126Z,101257.06
2023-02-13T14:15:38.875Z,101252.31
2023-02-13T14:18:48.940Z,101228.38
2023-02-13T14:21:56.177Z,101216.88
2023-02-13T14:25:02.826Z,101261.28
2023-02-13T14:28:08.322Z,101252.81
2023-02-13T14:31:32.938Z,101260.13
2023-02-13T14:34:40.952Z,101257.31
2023-02-13T14:38:00.792Z,101261.91
2023-02-13T14:41:08.082Z,101203.38
2023-02-13T14:44:37.153Z,101274.50
2023-02-13T14:47:46.330Z,101248.94
2023-02-13T14:50:57.665Z,101144.91
2023-02-13T14:54:20.169Z,101254.84
2023-02-13T14:57:37.760Z,101223.38
2023-02-13T15:00:53.819Z,101262.81
2023-02-13T15:04:16.919Z,101259.25
2023-02-13T15:07:31.786Z,101258.66
2023-02-13T15:10:47.882Z,101258.66
2023-02-13T15:13:54.864Z,101250.25
2023-02-13T15:17:08.184Z,101253.75
2023-02-13T15:20:26.036Z,101249.59
2023-02-13T15:23:33.002Z,101247.00
2023-02-13T15:26:37.222Z,101225.88
2023-02-13T15:29:56.173Z,101257.63
2023-02-13T15:33:02.251Z,101245.03
2023-02-13T15:36:08.087Z,101231.63
2023-02-13T15:39:24.511Z,101241.69
2023-02-13T15:42:28.924Z,101226.56
2023-02-13T15:45:33.993Z,101240.50
2023-02-13T15:48:38.513Z,101236.50
2023-02-13T15:51:43.048Z,101185.44
2023-02-13T15:54:54.930Z,101234.25
2023-02-13T15:58:02.411Z,101252.13
2023-02-13T16:01:09.124Z,101236.06
2023-02-13T16:04:46.788Z,100928.13
2023-02-13T16:07:53.580Z,101218.97
2023-02-13T16:11:29.604Z,101215.88
2023-02-13T16:14:38.656Z,101160.38
2023-02-13T16:17:46.712Z,101188.06
2023-02-13T16:20:56.706Z,101213.06
2023-02-13T16:24:07.803Z,101167.13
2023-02-13T16:27:17.033Z,101182.19
2023-02-13T16:30:25.947Z,101208.75
2023-02-13T16:33:31.209Z,101215.84
2023-02-13T16:36:36.021Z,101202.56
2023-02-13T16:39:40.636Z,101187.38
2023-02-13T16:42:45.264Z,101197.59
2023-02-13T16:45:49.773Z,101201.72
2023-02-13T16:49:02.372Z,101195.72
2023-02-13T16:52:17.531Z,101201.56
2023-02-13T16:55:22.895Z,101190.09
2023-02-13T16:58:28.220Z,101162.81
2023-02-13T17:01:32.129Z,101094.84
2023-02-13T17:04:37.487Z,101201.84
2023-02-13T17:11:50.724Z,101192.88
2023-02-13T17:14:55.157Z,101177.81
2023-02-13T17:18:00.714Z,101184.94
2023-02-13T17:21:04.890Z,101131.72
2023-02-13T17:24:13.181Z,101177.88
2023-02-13T17:27:17.591Z,101192.53
2023-02-13T17:30:27.242Z,101195.78
2023-02-13T17:33:35.112Z,101161.50
2023-02-13T17:36:39.260Z,101167.00
2023-02-13T17:39:43.883Z,101209.53
2023-02-13T17:42:53.656Z,101199.69
2023-02-13T17:45:59.974Z,101145.47
2023-02-13T17:49:05.372Z,101146.31
2023-02-13T17:52:11.885Z,101200.97
2023-02-13T17:55:25.579Z,101198.16
2023-02-13T17:58:29.865Z,101205.88
2023-02-13T18:01:34.504Z,101146.47
2023-02-13T18:04:38.862Z,101169.75
2023-02-13T18:07:44.079Z,101204.84
2023-02-13T18:10:48.576Z,101167.19
2023-02-13T18:13:56.380Z,101171.75
2023-02-13T18:17:01.371Z,101185.41
2023-02-13T18:20:10.564Z,101193.84
2023-02-13T18:23:15.030Z,101198.91
2023-02-13T18:26:19.332Z,101183.19
2023-02-13T18:29:23.689Z,101160.72
2023-02-13T18:32:27.864Z,101177.88
2023-02-13T18:35:34.186Z,101186.25
2023-02-13T18:38:38.061Z,101193.31
2023-02-13T18:41:42.786Z,101172.53
2023-02-13T18:44:46.875Z,101190.50
2023-02-13T18:47:51.008Z,101181.53
2023-02-13T18:50:55.554Z,101166.78
2023-02-13T18:54:00.701Z,101166.78
2023-02-13T18:57:04.904Z,101169.16
2023-02-13T19:00:10.151Z,101189.22
2023-02-13T19:03:14.096Z,101220.28
2023-02-13T19:06:22.037Z,101216.53
2023-02-13T19:09:26.576Z,101195.34
2023-02-13T19:12:31.072Z,101189.72
2023-02-13T19:15:44.670Z,101161.78
2023-02-13T19:18:58.719Z,101188.69
2023-02-13T19:22:04.733Z,101200.72
2023-02-13T19:25:09.324Z,101196.22
2023-02-13T19:28:13.450Z,101240.53
2023-02-13T19:31:25.707Z,101230.78
2023-02-13T19:34:33.179Z,101200.31
2023-02-13T19:37:46.225Z,101176.38
2023-02-13T19:40:56.255Z,101238.88
2023-02-13T19:44:01.871Z,101231.66
2023-02-13T19:47:06.352Z,101244.81
2023-02-13T19:50:13.416Z,101251.66
2023-02-13T19:53:17.924Z,101266.78
2023-02-13T19:56:22.459Z,101227.19
2023-02-13T19:59:30.132Z,101251.91
2023-02-13T20:02:45.839Z,101236.84
2023-02-13T20:05:50.229Z,101219.19
2023-02-13T20:09:10.125Z,101221.31
2023-02-13T20:12:17.940Z,101222.00
2023-02-13T20:15:25.978Z,101225.13
2023-02-13T20:18:30.275Z,101263.38
2023-02-13T20:21:35.328Z,101251.44
2023-02-13T20:24:39.867Z,101232.31
2023-02-13T20:27:44.279Z,101223.03
2023-02-13T20:30:48.593Z,101262.91
2023-02-13T20:33:53.781Z,101250.31
2023-02-13T20:37:01.013Z,101248.97
2023-02-13T20:40:06.305Z,101278.56
2023-02-13T20:43:10.356Z,101298.41
2023-02-13T20:46:19.203Z,101281.94
2023-02-13T20:49:23.089Z,101260.31
2023-02-13T20:52:27.466Z,101247.03
2023-02-13T20:55:32.967Z,101290.38
2023-02-13T20:58:37.707Z,101270.19
2023-02-13T21:01:42.340Z,101292.38
2023-02-13T21:04:46.920Z,101295.69
2023-02-13T21:07:51.317Z,101302.34
2023-02-13T21:10:55.552Z,101294.63
2023-02-13T21:14:00.236Z,101309.09
2023-02-13T21:17:04.715Z,101273.63
2023-02-13T21:25:27.630Z,101264.72
2023-02-13T21:28:31.752Z,101321.94
2023-02-13T21:31:39.036Z,101328.75
2023-02-13T21:34:44.160Z,101334.41
2023-02-13T21:37:48.439Z,101331.63
2023-02-13T21:40:52.805Z,101335.88
2023-02-13T21:43:57.124Z,101340.22
2023-02-13T21:47:01.751Z,101332.16
2023-02-13T21:50:09.408Z,101284.69
2023-02-13T21:53:13.741Z,101319.88
2023-02-13T21:56:20.690Z,101313.53
2023-02-13T21:59:25.117Z,101337.34
2023-02-13T22:02:30.214Z,101312.72
2023-02-13T22:05:34.584Z,101322.91
2023-02-13T22:08:39.056Z,101367.50
2023-02-13T22:11:44.277Z,101376.34
2023-02-13T22:14:48.648Z,101395.81
2023-02-13T22:17:57.063Z,101406.72
2023-02-13T22:21:14.262Z,101405.53
2023-02-13T22:24:56.305Z,101209.56
2023-02-13T22:28:53.899Z,101279.88
2023-02-13T22:32:13.067Z,101345.31
2023-02-13T22:35:21.750Z,101416.25
2023-02-13T22:38:28.383Z,101420.53
2023-02-13T22:41:43.153Z,101405.19
2023-02-13T22:44:47.509Z,101395.47
2023-02-13T22:47:54.432Z,101401.13
2023-02-13T22:51:08.123Z,101407.19
2023-02-13T22:54:12.585Z,101420.34
2023-02-13T22:57:18.271Z,101409.06
2023-02-13T23:00:24.403Z,101456.00
2023-02-13T23:03:29.348Z,101438.91
2023-02-13T23:06:33.756Z,101405.63
2023-02-13T23:09:46.068Z,101444.28
2023-02-13T23:12:54.968Z,101457.59
2023-02-13T23:15:59.305Z,101388.13
2023-02-13T23:19:03.621Z,101440.78
2023-02-13T23:22:29.831Z,101405.78
2023-02-13T23:25:34.116Z,101483.38
2023-02-13T23:28:38.478Z,101470.63
2023-02-13T23:31:43.314Z,101446.44
2023-02-13T23:34:47.724Z,101464.84
2023-02-13T23:37:52.168Z,101501.97
2023-02-13T23:40:56.812Z,101499.66
2023-02-13T23:44:01.293Z,101513.16
2023-02-13T23:47:05.932Z,101519.03
2023-02-13T23:50:13.213Z,101447.41
2023-02-13T23:53:17.562Z,101536.72
2023-02-13T23:56:26.112Z,101491.59
2023-02-13T23:59:30.623Z,101512.78
